createdAt,value
2022-12-11T00:00:19.662Z,74.26
2022-12-11T00:03:02.530Z,74.54
2022-12-11T00:05:46.859Z,74.66
2022-12-11T00:08:31.059Z,74.57
2022-12-11T00:11:15.208Z,74.61
2022-12-11T00:13:58.030Z,74.63
2022-12-11T00:16:41.026Z,74.54
2022-12-11T00:19:24.003Z,74.64
2022-12-11T00:22:06.913Z,74.42
2022-12-11T00:24:51.267Z,74.26
2022-12-11T00:27:34.095Z,74.61
2022-12-11T00:30:16.947Z,74.65
2022-12-11T00:32:59.834Z,74.56
2022-12-11T00:35:44.765Z,74.51
2022-12-11T00:38:27.789Z,74.54
2022-12-11T00:41:12.020Z,74.33
2022-12-11T00:43:54.928Z,74.39
2022-12-11T00:46:37.767Z,74.48
2022-12-11T00:49:20.677Z,74.23
2022-12-11T00:52:03.471Z,74.33
2022-12-11T00:54:46.363Z,74.41
2022-12-11T00:57:30.530Z,74.25
2022-12-11T01:00:14.717Z,74.33
2022-12-11T01:02:57.597Z,74.41
2022-12-11T01:05:40.835Z,74.22
2022-12-11T01:08:23.821Z,74.07
2022-12-11T01:11:10.131Z,74.29
2022-12-11T01:13:54.318Z,74.41
2022-12-11T01:16:37.905Z,74.36
2022-12-11T01:19:20.811Z,74.58
2022-12-11T01:22:03.662Z,74.68
2022-12-11T01:24:46.576Z,74.62
2022-12-11T01:27:29.453Z,74.62
2022-12-11T01:30:14.367Z,74.69
2022-12-11T01:32:57.275Z,74.61
2022-12-11T01:35:41.249Z,74.61
2022-12-11T01:38:24.100Z,74.58
2022-12-11T01:41:07.221Z,74.70
2022-12-11T01:44:06.735Z,74.56
2022-12-11T01:46:50.946Z,74.85
2022-12-11T01:49:33.970Z,74.79
2022-12-11T01:52:20.910Z,74.72
2022-12-11T01:55:03.966Z,75.06
2022-12-11T01:57:50.043Z,75.25
2022-12-11T02:00:32.936Z,75.20
2022-12-11T02:03:17.149Z,75.21
2022-12-11T02:06:00.861Z,75.27
2022-12-11T02:08:43.705Z,75.50
2022-12-11T02:11:36.428Z,75.48
2022-12-11T02:14:28.002Z,75.37
2022-12-11T02:17:15.614Z,75.50
2022-12-11T02:20:06.644Z,75.40
2022-12-11T02:23:09.350Z,75.49
2022-12-11T02:26:01.411Z,75.36
2022-12-11T02:28:50.328Z,75.31
2022-12-11T02:31:37.988Z,75.28
2022-12-11T02:34:26.433Z,75.43
2022-12-11T02:37:13.971Z,75.32
2022-12-11T02:39:58.117Z,75.27
2022-12-11T02:42:44.209Z,75.20
2022-12-11T02:45:29.778Z,74.96
2022-12-11T02:48:14.526Z,74.83
2022-12-11T02:50:59.262Z,74.97
2022-12-11T02:53:44.861Z,74.95
2022-12-11T02:56:32.362Z,75.04
2022-12-11T02:59:20.081Z,74.83
2022-12-11T03:02:05.480Z,74.68
2022-12-11T03:04:49.130Z,74.71
2022-12-11T03:07:36.143Z,74.55
2022-12-11T03:10:21.008Z,74.80
2022-12-11T03:13:04.505Z,74.81
2022-12-11T03:16:00.292Z,74.66
2022-12-11T03:18:53.602Z,74.65
2022-12-11T03:21:42.804Z,74.71
2022-12-11T03:24:31.738Z,74.63
2022-12-11T03:27:21.056Z,74.54
2022-12-11T03:30:07.322Z,74.38
2022-12-11T03:32:52.906Z,74.34
2022-12-11T03:35:40.985Z,74.33
2022-12-11T03:38:26.802Z,74.40
2022-12-11T03:41:11.715Z,74.49
2022-12-11T03:43:57.299Z,74.09
2022-12-11T03:46:43.268Z,74.27
2022-12-11T03:49:31.771Z,74.53
2022-12-11T03:52:17.885Z,74.59
2022-12-11T03:55:04.069Z,74.60
2022-12-11T03:57:46.971Z,74.24
2022-12-11T04:00:30.922Z,74.20
2022-12-11T04:03:14.435Z,74.46
2022-12-11T04:05:58.014Z,74.58
2022-12-11T04:08:42.196Z,74.38
2022-12-11T04:11:36.834Z,74.55
2022-12-11T04:14:38.824Z,74.30
2022-12-11T04:17:35.608Z,73.98
2022-12-11T04:20:36.780Z,74.20
2022-12-11T04:23:38.105Z,74.22
2022-12-11T04:26:22.606Z,74.04
2022-12-11T04:29:05.445Z,74.08
2022-12-11T04:31:48.283Z,74.07
2022-12-11T04:34:31.381Z,74.14
2022-12-11T04:37:14.245Z,73.97
2022-12-11T04:39:57.076Z,73.93
2022-12-11T04:42:41.485Z,74.15
2022-12-11T04:45:24.129Z,74.38
2022-12-11T04:48:07.719Z,73.99
2022-12-11T04:50:50.586Z,74.07
2022-12-11T04:53:33.601Z,74.26
2022-12-11T04:56:17.543Z,74.44
2022-12-11T04:59:02.219Z,74.32
2022-12-11T05:01:45.302Z,74.16
2022-12-11T05:04:32.246Z,74.35
2022-12-11T05:07:15.476Z,73.87
2022-12-11T05:09:58.294Z,74.18
2022-12-11T05:12:41.180Z,74.32
2022-12-11T05:15:25.411Z,73.94
2022-12-11T05:18:08.328Z,73.91
2022-12-11T05:20:56.580Z,74.07
2022-12-11T05:23:40.126Z,74.33
2022-12-11T05:26:22.968Z,74.29
2022-12-11T05:29:05.947Z,73.99
2022-12-11T05:31:50.140Z,73.61
2022-12-11T05:34:33.137Z,73.60
2022-12-11T05:37:16.026Z,73.66
2022-12-11T05:39:58.879Z,73.67
2022-12-11T05:42:41.762Z,73.77
2022-12-11T05:45:24.606Z,73.90
2022-12-11T05:48:09.266Z,73.75
2022-12-11T05:50:59.558Z,73.92
2022-12-11T05:53:43.971Z,73.67
2022-12-11T05:56:27.380Z,73.58
2022-12-11T05:59:10.530Z,73.83
2022-12-11T06:01:53.493Z,73.95
2022-12-11T06:04:37.729Z,73.92
2022-12-11T06:07:20.545Z,73.93
2022-12-11T06:10:03.389Z,73.35
2022-12-11T06:12:46.266Z,73.26
2022-12-11T06:15:29.148Z,73.34
2022-12-11T06:18:12.023Z,73.21
2022-12-11T06:20:56.205Z,73.29
2022-12-11T06:23:39.079Z,73.27
2022-12-11T06:26:22.518Z,73.37
2022-12-11T06:29:09.226Z,73.41
2022-12-11T06:31:55.629Z,73.35
2022-12-11T06:34:38.550Z,73.47
2022-12-11T06:37:22.756Z,73.61
2022-12-11T06:40:06.877Z,73.57
2022-12-11T06:42:49.738Z,73.70
2022-12-11T06:45:32.777Z,73.60
2022-12-11T06:48:15.690Z,73.67
2022-12-11T06:50:58.601Z,73.50
2022-12-11T06:53:44.062Z,73.17
2022-12-11T06:56:26.941Z,73.49
2022-12-11T06:59:12.606Z,73.38
2022-12-11T07:01:55.525Z,73.00
2022-12-11T07:04:38.438Z,72.44
2022-12-11T07:07:21.291Z,72.92
2022-12-11T07:10:08.536Z,73.04
2022-12-11T07:12:53.665Z,73.15
2022-12-11T07:15:40.516Z,72.90
2022-12-11T07:18:23.582Z,72.87
2022-12-11T07:21:07.154Z,72.85
2022-12-11T07:23:50.971Z,72.77
2022-12-11T07:26:35.465Z,72.86
2022-12-11T07:29:18.329Z,72.81
2022-12-11T07:32:01.321Z,72.27
2022-12-11T07:34:50.079Z,72.40
2022-12-11T07:37:34.497Z,72.46
2022-12-11T07:40:17.781Z,72.63
2022-12-11T07:43:01.995Z,72.80
2022-12-11T07:45:44.921Z,72.71
2022-12-11T07:48:27.797Z,72.70
2022-12-11T07:51:11.694Z,72.56
2022-12-11T07:53:57.083Z,72.95
2022-12-11T07:56:43.680Z,73.18
2022-12-11T07:59:28.181Z,72.82
2022-12-11T08:02:11.812Z,72.56
2022-12-11T08:04:54.776Z,72.38
2022-12-11T08:07:37.635Z,72.51
2022-12-11T08:10:20.749Z,72.50
2022-12-11T08:13:03.599Z,72.43
2022-12-11T08:15:47.827Z,71.95
2022-12-11T08:18:30.677Z,71.01
2022-12-11T08:21:15.859Z,71.00
2022-12-11T08:23:58.896Z,71.21
2022-12-11T08:26:41.819Z,70.91
2022-12-11T08:29:24.822Z,71.04
2022-12-11T08:32:12.418Z,71.09
2022-12-11T08:34:55.555Z,70.72
2022-12-11T08:37:38.382Z,70.66
2022-12-11T08:40:21.389Z,70.02
2022-12-11T08:43:04.550Z,68.90
2022-12-11T08:45:49.418Z,68.81
2022-12-11T08:48:33.962Z,69.21
2022-12-11T08:51:20.688Z,69.70
2022-12-11T08:54:03.542Z,68.70
2022-12-11T08:56:46.449Z,67.62
2022-12-11T08:59:29.304Z,67.64
2022-12-11T09:02:13.385Z,67.51
2022-12-11T09:04:57.648Z,67.02
2022-12-11T09:07:40.684Z,66.68
2022-12-11T09:10:23.522Z,66.33
2022-12-11T09:13:06.458Z,67.09
2022-12-11T09:15:49.357Z,67.61
2022-12-11T09:18:32.257Z,68.32
2022-12-11T09:21:18.675Z,68.46
2022-12-11T09:24:02.708Z,68.83
2022-12-11T09:26:47.215Z,68.63
2022-12-11T09:29:30.050Z,68.29
2022-12-11T09:32:12.913Z,68.70
2022-12-11T09:34:55.736Z,68.79
2022-12-11T09:37:39.982Z,68.35
2022-12-11T09:40:22.867Z,68.08
2022-12-11T09:43:18.124Z,68.20
2022-12-11T09:46:04.107Z,68.66
2022-12-11T09:48:49.689Z,69.56
2022-12-11T09:51:41.064Z,68.26
2022-12-11T09:54:25.365Z,67.94
2022-12-11T09:57:18.388Z,67.64
2022-12-11T10:00:13.443Z,68.50
2022-12-11T10:03:10.047Z,66.63
2022-12-11T10:06:04.199Z,67.27
2022-12-11T10:09:01.811Z,67.17
2022-12-11T10:11:57.223Z,65.78
2022-12-11T10:14:52.440Z,65.31
2022-12-11T10:17:38.269Z,65.81
2022-12-11T10:20:26.815Z,64.48
2022-12-11T10:23:15.109Z,64.50
2022-12-11T10:26:03.956Z,64.21
2022-12-11T10:28:48.697Z,63.12
2022-12-11T10:31:42.389Z,62.13
2022-12-11T10:34:34.380Z,62.12
2022-12-11T10:37:17.328Z,62.53
2022-12-11T10:40:00.158Z,61.61
2022-12-11T10:42:53.251Z,62.79
2022-12-11T10:45:37.603Z,64.13
2022-12-11T10:48:20.653Z,63.69
2022-12-11T10:51:07.076Z,63.68
2022-12-11T10:53:53.976Z,64.02
2022-12-11T10:56:38.891Z,64.13
2022-12-11T10:59:25.478Z,63.99
2022-12-11T11:02:24.266Z,64.05
2022-12-11T11:05:14.261Z,63.65
2022-12-11T11:08:11.765Z,63.80
2022-12-11T11:10:56.643Z,64.07
2022-12-11T11:13:39.534Z,64.29
2022-12-11T11:16:23.653Z,63.85
2022-12-11T11:19:08.774Z,64.51
2022-12-11T11:21:53.740Z,64.44
2022-12-11T11:24:40.956Z,64.37
2022-12-11T11:27:30.871Z,64.36
2022-12-11T11:30:20.735Z,64.03
2022-12-11T11:33:06.458Z,64.99
2022-12-11T11:35:55.255Z,64.92
2022-12-11T11:38:45.839Z,64.03
2022-12-11T11:41:35.043Z,62.77
2022-12-11T11:44:26.441Z,62.77
2022-12-11T11:47:15.381Z,63.55
2022-12-11T11:50:04.837Z,64.48
2022-12-11T11:52:54.168Z,64.79
2022-12-11T11:55:45.087Z,64.87
2022-12-11T11:58:36.233Z,64.89
2022-12-11T12:01:21.417Z,64.53
2022-12-11T12:04:05.879Z,64.60
2022-12-11T12:06:58.780Z,64.08
2022-12-11T12:09:53.946Z,63.92
2022-12-11T12:12:44.581Z,64.22
2022-12-11T12:15:39.953Z,64.18
2022-12-11T12:18:36.301Z,64.66
2022-12-11T12:21:28.325Z,64.75
2022-12-11T12:24:21.827Z,64.45
2022-12-11T12:27:50.935Z,64.17
2022-12-11T12:30:25.608Z,63.62
2022-12-11T12:33:28.782Z,62.50
2022-12-11T12:36:20.238Z,62.54
2022-12-11T12:39:08.274Z,63.12
2022-12-11T12:42:03.979Z,63.05
2022-12-11T12:44:59.368Z,63.41
2022-12-11T12:47:46.747Z,63.70
2022-12-11T12:50:40.818Z,63.58
2022-12-11T12:53:26.578Z,63.87
2022-12-11T12:56:12.557Z,64.44
2022-12-11T12:58:55.534Z,64.33
2022-12-11T13:01:39.972Z,63.35
2022-12-11T13:04:54.981Z,63.06
2022-12-11T13:07:35.281Z,63.91
2022-12-11T13:10:28.673Z,63.92
2022-12-11T13:13:31.550Z,63.74
2022-12-11T13:16:27.472Z,63.81
2022-12-11T13:19:29.177Z,63.65
2022-12-11T13:22:23.247Z,63.42
2022-12-11T13:25:22.146Z,63.62
2022-12-11T13:28:09.714Z,63.88
2022-12-11T13:31:05.847Z,63.91
2022-12-11T13:33:50.859Z,63.96
2022-12-11T13:36:37.729Z,63.30
2022-12-11T13:39:24.606Z,63.28
2022-12-11T13:42:21.762Z,63.83
2022-12-11T13:45:05.606Z,63.55
2022-12-11T13:47:48.759Z,63.63
2022-12-11T13:50:34.197Z,63.88
2022-12-11T13:53:19.808Z,64.54
2022-12-11T13:56:04.781Z,64.10
2022-12-11T13:58:48.272Z,63.70
2022-12-11T14:01:35.232Z,63.94
2022-12-11T14:04:22.518Z,64.13
2022-12-11T14:07:09.118Z,64.64
2022-12-11T14:10:00.156Z,64.65
2022-12-11T14:12:47.389Z,64.66
2022-12-11T14:15:33.930Z,65.10
2022-12-11T14:18:22.161Z,65.53
2022-12-11T14:21:07.034Z,65.21
2022-12-11T14:23:53.721Z,65.25
2022-12-11T14:26:38.808Z,65.58
2022-12-11T14:29:26.964Z,65.62
2022-12-11T14:32:10.286Z,65.96
2022-12-11T14:34:54.741Z,65.77
2022-12-11T14:37:38.155Z,65.53
2022-12-11T14:40:25.932Z,65.53
2022-12-11T14:43:16.520Z,66.00
2022-12-11T14:46:03.778Z,66.52
2022-12-11T14:48:59.119Z,66.58
2022-12-11T14:51:44.622Z,66.74
2022-12-11T14:54:34.925Z,66.49
2022-12-11T14:57:21.145Z,66.67
2022-12-11T15:00:07.297Z,66.75
2022-12-11T15:02:59.520Z,66.61
2022-12-11T15:05:51.398Z,66.78
2022-12-11T15:08:36.930Z,67.02
2022-12-11T15:11:20.245Z,67.09
2022-12-11T15:14:05.622Z,67.11
2022-12-11T15:16:51.587Z,67.09
2022-12-11T15:19:36.262Z,67.57
2022-12-11T15:22:21.017Z,67.39
2022-12-11T15:25:05.876Z,67.51
2022-12-11T15:27:53.105Z,67.46
2022-12-11T15:30:36.343Z,67.38
2022-12-11T15:33:22.652Z,67.58
2022-12-11T15:36:08.160Z,67.50
2022-12-11T15:38:50.989Z,67.49
2022-12-11T15:41:34.753Z,67.49
2022-12-11T15:44:22.622Z,67.66
2022-12-11T15:47:13.228Z,67.64
2022-12-11T15:50:00.627Z,67.64
2022-12-11T15:52:43.956Z,67.78
2022-12-11T15:55:29.714Z,67.85
2022-12-11T15:58:17.565Z,68.01
2022-12-11T16:01:00.717Z,67.96
2022-12-11T16:03:43.543Z,67.88
2022-12-11T16:06:27.871Z,67.94
2022-12-11T16:09:10.578Z,68.51
2022-12-11T16:11:53.440Z,68.28
2022-12-11T16:14:39.194Z,68.09
2022-12-11T16:17:22.094Z,68.15
2022-12-11T16:20:05.766Z,68.44
2022-12-11T16:22:50.010Z,68.43
2022-12-11T16:25:33.737Z,68.14
2022-12-11T16:28:20.709Z,68.20
2022-12-11T16:31:03.712Z,68.50
2022-12-11T16:33:46.623Z,68.61
2022-12-11T16:36:29.503Z,68.69
2022-12-11T16:39:13.851Z,68.62
2022-12-11T16:41:56.578Z,68.69
2022-12-11T16:44:43.819Z,68.82
2022-12-11T16:47:27.091Z,68.73
2022-12-11T16:50:12.021Z,68.68
2022-12-11T16:52:55.425Z,68.84
2022-12-11T16:55:40.660Z,69.00
2022-12-11T16:58:23.606Z,68.81
2022-12-11T17:01:12.045Z,68.96
2022-12-11T17:03:55.296Z,68.58
2022-12-11T17:06:38.155Z,68.87
2022-12-11T17:09:21.038Z,68.84
2022-12-11T17:12:06.239Z,68.86
2022-12-11T17:14:49.090Z,68.88
2022-12-11T17:17:32.235Z,68.79
2022-12-11T17:20:15.282Z,68.82
2022-12-11T17:22:58.140Z,68.84
2022-12-11T17:25:42.011Z,68.78
2022-12-11T17:28:26.323Z,68.95
2022-12-11T17:31:09.722Z,69.23
2022-12-11T17:33:54.444Z,68.84
2022-12-11T17:36:37.346Z,69.03
2022-12-11T17:39:20.277Z,68.92
2022-12-11T17:42:03.084Z,68.94
2022-12-11T17:44:47.327Z,68.96
2022-12-11T17:47:30.184Z,68.99
2022-12-11T17:50:13.055Z,68.46
2022-12-11T17:52:55.910Z,68.58
2022-12-11T17:55:42.805Z,68.51
2022-12-11T17:58:25.790Z,68.82
2022-12-11T18:01:11.835Z,68.76
2022-12-11T18:03:54.772Z,69.04
2022-12-11T18:06:37.654Z,68.90
2022-12-11T18:09:20.527Z,68.99
2022-12-11T18:12:03.380Z,69.08
2022-12-11T18:14:46.286Z,69.32
2022-12-11T18:17:30.533Z,69.27
2022-12-11T18:20:14.400Z,69.30
2022-12-11T18:22:57.308Z,69.37
2022-12-11T18:25:40.121Z,69.22
2022-12-11T18:28:23.230Z,69.23
2022-12-11T18:31:07.555Z,69.21
2022-12-11T18:33:52.363Z,69.40
2022-12-11T18:36:36.246Z,69.32
2022-12-11T18:39:19.116Z,69.28
2022-12-11T18:42:31.302Z,69.35
2022-12-11T18:45:07.006Z,69.52
2022-12-11T18:47:51.971Z,69.23
2022-12-11T18:50:36.499Z,69.66
2022-12-11T18:53:19.815Z,69.48
2022-12-11T18:56:07.560Z,69.56
2022-12-11T18:58:50.650Z,69.53
2022-12-11T19:01:34.592Z,69.24
2022-12-11T19:04:17.853Z,69.54
2022-12-11T19:07:02.426Z,69.45
2022-12-11T19:09:48.314Z,69.53
2022-12-11T19:12:31.553Z,69.48
2022-12-11T19:15:17.363Z,69.31
2022-12-11T19:18:02.471Z,69.51
2022-12-11T19:20:53.651Z,69.46
2022-12-11T19:23:43.477Z,69.44
2022-12-11T19:26:27.144Z,69.42
2022-12-11T19:29:10.677Z,69.30
2022-12-11T19:31:55.150Z,69.40
2022-12-11T19:34:39.492Z,69.15
2022-12-11T19:37:22.459Z,69.49
2022-12-11T19:40:09.341Z,69.74
2022-12-11T19:42:52.463Z,69.85
2022-12-11T19:45:36.007Z,69.98
2022-12-11T19:48:18.872Z,69.95
2022-12-11T19:51:05.780Z,69.77
2022-12-11T19:53:49.662Z,70.08
2022-12-11T19:56:35.394Z,69.90
2022-12-11T19:59:19.314Z,69.86
2022-12-11T20:02:02.249Z,69.82
2022-12-11T20:04:45.173Z,69.65
2022-12-11T20:07:30.733Z,69.50
2022-12-11T20:10:14.071Z,69.64
2022-12-11T20:12:59.194Z,69.75
2022-12-11T20:15:42.082Z,69.85
2022-12-11T20:18:25.041Z,70.08
2022-12-11T20:21:10.069Z,70.20
2022-12-11T20:23:52.926Z,70.38
2022-12-11T20:26:38.151Z,70.42
2022-12-11T20:29:22.698Z,70.36
2022-12-11T20:32:06.004Z,70.19
2022-12-11T20:34:48.947Z,70.28
2022-12-11T20:37:32.028Z,70.35
2022-12-11T20:40:14.880Z,70.21
2022-12-11T20:42:57.715Z,70.24
2022-12-11T20:45:42.028Z,70.46
2022-12-11T20:48:24.718Z,70.37
2022-12-11T20:51:09.716Z,70.36
2022-12-11T20:53:58.184Z,70.31
2022-12-11T20:56:41.141Z,70.31
2022-12-11T20:59:24.065Z,70.34
2022-12-11T21:02:09.507Z,70.18
2022-12-11T21:04:52.598Z,70.14
2022-12-11T21:07:35.514Z,70.29
2022-12-11T21:10:18.498Z,70.35
2022-12-11T21:13:01.400Z,70.23
2022-12-11T21:15:44.776Z,70.23
2022-12-11T21:18:28.947Z,70.19
2022-12-11T21:21:11.780Z,70.29
2022-12-11T21:23:54.700Z,70.20
2022-12-11T21:26:37.562Z,70.13
2022-12-11T21:29:20.395Z,70.23
2022-12-11T21:32:03.381Z,70.16
2022-12-11T21:34:47.655Z,70.22
2022-12-11T21:37:30.299Z,70.34
2022-12-11T21:40:13.962Z,70.31
2022-12-11T21:42:58.042Z,70.43
2022-12-11T21:48:44.956Z,70.60
2022-12-11T21:51:36.894Z,70.70
2022-12-11T21:54:21.555Z,70.47
2022-12-11T21:57:04.839Z,70.46
2022-12-11T21:59:47.679Z,70.67
2022-12-11T22:02:36.012Z,70.60
2022-12-11T22:05:21.986Z,70.61
2022-12-11T22:08:07.143Z,70.27
2022-12-11T22:10:50.654Z,70.40
2022-12-11T22:13:33.596Z,70.41
2022-12-11T22:16:16.530Z,70.08
2022-12-11T22:18:59.540Z,70.20
2022-12-11T22:21:42.661Z,70.30
2022-12-11T22:24:26.834Z,70.25
2022-12-11T22:27:09.701Z,70.41
2022-12-11T22:29:52.687Z,70.43
2022-12-11T22:32:35.550Z,70.34
2022-12-11T22:35:20.951Z,70.17
2022-12-11T22:38:07.584Z,70.17
2022-12-11T22:40:51.813Z,70.31
2022-12-11T22:43:34.477Z,70.71
2022-12-11T22:46:18.227Z,70.68
2022-12-11T22:49:01.112Z,70.77
2022-12-11T22:51:45.905Z,71.20
2022-12-11T22:54:28.829Z,71.08
2022-12-11T22:57:14.220Z,71.33
2022-12-11T22:59:57.914Z,71.52
2022-12-11T23:02:41.037Z,71.57
2022-12-11T23:05:23.973Z,71.44
2022-12-11T23:08:07.326Z,71.14
2022-12-11T23:10:50.248Z,71.23
2022-12-11T23:13:34.477Z,71.23
2022-12-11T23:16:17.159Z,71.47
2022-12-11T23:19:00.362Z,71.33
2022-12-11T23:21:43.614Z,71.21
2022-12-11T23:24:27.341Z,71.29
2022-12-11T23:27:10.456Z,71.09
2022-12-11T23:29:55.217Z,70.99
2022-12-11T23:32:38.155Z,70.98
2022-12-11T23:35:20.985Z,70.68
2022-12-11T23:38:05.463Z,70.34
2022-12-11T23:40:49.371Z,70.63
2022-12-11T23:43:32.666Z,70.82
2022-12-11T23:46:19.236Z,70.54
2022-12-11T23:49:02.187Z,70.14
2022-12-11T23:51:45.052Z,70.13
2022-12-11T23:54:27.994Z,70.17
2022-12-11T23:57:10.854Z,70.31
2022-12-11T23:59:53.845Z,70.22
